sensor_id;sensor_type;location;lat;lon;timestamp;P1;durP1;ratioP1;P2;durP2;ratioP2
64395;SDS011;50717;53.360;6.290;2023-05-07T00:02:21;39.10;;;25.92;;
64395;SDS011;50717;53.360;6.290;2023-05-07T00:04:47;38.13;;;25.13;;
64395;SDS011;50717;53.360;6.290;2023-05-07T00:09:39;38.00;;;25.48;;
64395;SDS011;50717;53.360;6.290;2023-05-07T00:12:05;35.65;;;24.55;;
64395;SDS011;50717;53.360;6.290;2023-05-07T00:16:57;37.35;;;25.17;;
64395;SDS011;50717;53.360;6.290;2023-05-07T00:19:22;39.10;;;27.42;;
64395;SDS011;50717;53.360;6.290;2023-05-07T00:24:14;38.38;;;24.83;;
64395;SDS011;50717;53.360;6.290;2023-05-07T00:26:39;37.25;;;25.65;;
64395;SDS011;50717;53.360;6.290;2023-05-07T00:29:05;37.50;;;26.20;;
64395;SDS011;50717;53.360;6.290;2023-05-07T00:31:31;40.47;;;26.02;;
64395;SDS011;50717;53.360;6.290;2023-05-07T00:33:56;41.47;;;27.95;;
64395;SDS011;50717;53.360;6.290;2023-05-07T00:36:22;42.85;;;27.80;;
64395;SDS011;50717;53.360;6.290;2023-05-07T00:38:48;43.03;;;27.35;;
64395;SDS011;50717;53.360;6.290;2023-05-07T00:41:13;48.90;;;28.88;;
64395;SDS011;50717;53.360;6.290;2023-05-07T00:43:40;42.97;;;28.20;;
64395;SDS011;50717;53.360;6.290;2023-05-07T00:46:05;42.58;;;27.98;;
64395;SDS011;50717;53.360;6.290;2023-05-07T00:48:31;45.83;;;29.02;;
64395;SDS011;50717;53.360;6.290;2023-05-07T00:50:57;42.80;;;29.00;;
64395;SDS011;50717;53.360;6.290;2023-05-07T00:53:22;45.13;;;29.00;;
64395;SDS011;50717;53.360;6.290;2023-05-07T00:55:48;42.00;;;28.83;;
64395;SDS011;50717;53.360;6.290;2023-05-07T00:58:14;43.28;;;29.35;;
64395;SDS011;50717;53.360;6.290;2023-05-07T01:00:40;44.63;;;28.15;;
64395;SDS011;50717;53.360;6.290;2023-05-07T01:03:07;41.97;;;29.05;;
64395;SDS011;50717;53.360;6.290;2023-05-07T01:05:33;46.38;;;30.23;;
64395;SDS011;50717;53.360;6.290;2023-05-07T01:07:59;43.90;;;28.55;;
64395;SDS011;50717;53.360;6.290;2023-05-07T01:10:27;43.38;;;29.65;;
64395;SDS011;50717;53.360;6.290;2023-05-07T01:12:55;46.63;;;30.65;;
64395;SDS011;50717;53.360;6.290;2023-05-07T01:15:23;47.00;;;30.33;;
64395;SDS011;50717;53.360;6.290;2023-05-07T01:17:49;43.42;;;29.95;;
64395;SDS011;50717;53.360;6.290;2023-05-07T01:20:15;53.65;;;31.52;;
64395;SDS011;50717;53.360;6.290;2023-05-07T01:22:40;47.70;;;30.88;;
64395;SDS011;50717;53.360;6.290;2023-05-07T01:25:08;45.85;;;31.98;;
64395;SDS011;50717;53.360;6.290;2023-05-07T01:27:34;50.50;;;31.48;;
64395;SDS011;50717;53.360;6.290;2023-05-07T01:30:02;52.90;;;34.13;;
64395;SDS011;50717;53.360;6.290;2023-05-07T01:32:32;52.75;;;33.22;;
64395;SDS011;50717;53.360;6.290;2023-05-07T01:35:03;53.67;;;34.08;;
64395;SDS011;50717;53.360;6.290;2023-05-07T01:37:32;51.33;;;33.17;;
64395;SDS011;50717;53.360;6.290;2023-05-07T01:39:58;49.75;;;34.67;;
64395;SDS011;50717;53.360;6.290;2023-05-07T01:42:24;56.40;;;34.45;;
64395;SDS011;50717;53.360;6.290;2023-05-07T01:47:16;52.20;;;34.40;;
64395;SDS011;50717;53.360;6.290;2023-05-07T01:49:42;57.50;;;37.03;;
64395;SDS011;50717;53.360;6.290;2023-05-07T01:52:09;56.28;;;37.58;;
64395;SDS011;50717;53.360;6.290;2023-05-07T01:54:36;56.45;;;37.28;;
64395;SDS011;50717;53.360;6.290;2023-05-07T01:57:01;63.58;;;39.00;;
64395;SDS011;50717;53.360;6.290;2023-05-07T01:59:27;66.07;;;39.08;;
64395;SDS011;50717;53.360;6.290;2023-05-07T02:01:53;66.88;;;39.72;;
64395;SDS011;50717;53.360;6.290;2023-05-07T02:04:18;59.08;;;38.72;;
64395;SDS011;50717;53.360;6.290;2023-05-07T02:06:44;60.70;;;38.75;;
64395;SDS011;50717;53.360;6.290;2023-05-07T02:09:10;64.03;;;39.97;;
64395;SDS011;50717;53.360;6.290;2023-05-07T02:11:36;70.35;;;41.20;;
64395;SDS011;50717;53.360;6.290;2023-05-07T02:14:02;65.78;;;40.78;;
64395;SDS011;50717;53.360;6.290;2023-05-07T02:16:27;67.50;;;42.75;;
64395;SDS011;50717;53.360;6.290;2023-05-07T02:18:53;68.35;;;42.00;;
64395;SDS011;50717;53.360;6.290;2023-05-07T02:21:19;69.45;;;41.60;;
64395;SDS011;50717;53.360;6.290;2023-05-07T02:23:44;68.57;;;41.58;;
64395;SDS011;50717;53.360;6.290;2023-05-07T02:26:10;71.45;;;43.38;;
64395;SDS011;50717;53.360;6.290;2023-05-07T02:28:36;71.90;;;43.35;;
64395;SDS011;50717;53.360;6.290;2023-05-07T02:31:02;73.50;;;43.85;;
64395;SDS011;50717;53.360;6.290;2023-05-07T02:33:28;78.90;;;45.88;;
64395;SDS011;50717;53.360;6.290;2023-05-07T02:35:54;75.78;;;45.08;;
64395;SDS011;50717;53.360;6.290;2023-05-07T02:38:20;92.63;;;47.67;;
64395;SDS011;50717;53.360;6.290;2023-05-07T02:40:45;80.43;;;46.47;;
64395;SDS011;50717;53.360;6.290;2023-05-07T02:43:11;79.57;;;45.78;;
64395;SDS011;50717;53.360;6.290;2023-05-07T02:45:37;81.15;;;48.08;;
64395;SDS011;50717;53.360;6.290;2023-05-07T02:48:03;78.75;;;46.58;;
64395;SDS011;50717;53.360;6.290;2023-05-07T02:50:30;74.78;;;45.53;;
64395;SDS011;50717;53.360;6.290;2023-05-07T02:52:57;81.63;;;48.05;;
64395;SDS011;50717;53.360;6.290;2023-05-07T02:57:49;82.45;;;47.05;;
64395;SDS011;50717;53.360;6.290;2023-05-07T03:00:18;82.68;;;48.70;;
64395;SDS011;50717;53.360;6.290;2023-05-07T03:02:44;81.38;;;46.47;;
64395;SDS011;50717;53.360;6.290;2023-05-07T03:05:10;75.18;;;45.63;;
64395;SDS011;50717;53.360;6.290;2023-05-07T03:07:37;77.32;;;44.92;;
64395;SDS011;50717;53.360;6.290;2023-05-07T03:10:03;70.80;;;43.75;;
64395;SDS011;50717;53.360;6.290;2023-05-07T03:12:30;69.88;;;41.55;;
64395;SDS011;50717;53.360;6.290;2023-05-07T03:17:22;70.18;;;39.10;;
64395;SDS011;50717;53.360;6.290;2023-05-07T03:19:47;73.22;;;41.13;;
64395;SDS011;50717;53.360;6.290;2023-05-07T03:22:13;69.57;;;39.92;;
64395;SDS011;50717;53.360;6.290;2023-05-07T03:27:05;70.20;;;40.58;;
64395;SDS011;50717;53.360;6.290;2023-05-07T03:29:30;75.72;;;43.13;;
64395;SDS011;50717;53.360;6.290;2023-05-07T03:31:56;79.47;;;46.83;;
64395;SDS011;50717;53.360;6.290;2023-05-07T03:34:22;87.10;;;46.67;;
64395;SDS011;50717;53.360;6.290;2023-05-07T03:36:48;85.22;;;46.92;;
64395;SDS011;50717;53.360;6.290;2023-05-07T03:39:14;84.85;;;46.70;;
64395;SDS011;50717;53.360;6.290;2023-05-07T03:41:39;69.22;;;42.22;;
64395;SDS011;50717;53.360;6.290;2023-05-07T03:44:05;75.47;;;43.30;;
64395;SDS011;50717;53.360;6.290;2023-05-07T03:46:31;74.45;;;41.65;;
64395;SDS011;50717;53.360;6.290;2023-05-07T03:48:57;66.82;;;41.28;;
64395;SDS011;50717;53.360;6.290;2023-05-07T03:51:23;65.43;;;39.30;;
64395;SDS011;50717;53.360;6.290;2023-05-07T03:53:50;62.92;;;39.38;;
64395;SDS011;50717;53.360;6.290;2023-05-07T03:56:18;66.80;;;38.95;;
64395;SDS011;50717;53.360;6.290;2023-05-07T04:01:09;63.20;;;36.08;;
64395;SDS011;50717;53.360;6.290;2023-05-07T04:03:36;59.70;;;38.55;;
64395;SDS011;50717;53.360;6.290;2023-05-07T04:06:02;63.25;;;37.45;;
64395;SDS011;50717;53.360;6.290;2023-05-07T04:08:28;72.03;;;39.60;;
64395;SDS011;50717;53.360;6.290;2023-05-07T04:10:56;68.05;;;38.90;;
64395;SDS011;50717;53.360;6.290;2023-05-07T04:13:23;66.78;;;38.55;;
64395;SDS011;50717;53.360;6.290;2023-05-07T04:15:49;70.50;;;40.30;;
64395;SDS011;50717;53.360;6.290;2023-05-07T04:18:14;63.20;;;38.88;;
64395;SDS011;50717;53.360;6.290;2023-05-07T04:20:40;71.90;;;41.17;;
64395;SDS011;50717;53.360;6.290;2023-05-07T04:23:06;72.28;;;40.78;;
64395;SDS011;50717;53.360;6.290;2023-05-07T04:25:32;70.50;;;41.50;;
64395;SDS011;50717;53.360;6.290;2023-05-07T04:30:24;74.07;;;41.45;;
64395;SDS011;50717;53.360;6.290;2023-05-07T04:32:50;66.20;;;40.20;;
64395;SDS011;50717;53.360;6.290;2023-05-07T04:37:42;67.07;;;38.92;;
64395;SDS011;50717;53.360;6.290;2023-05-07T04:40:08;72.43;;;41.33;;
64395;SDS011;50717;53.360;6.290;2023-05-07T04:42:34;63.40;;;38.05;;
64395;SDS011;50717;53.360;6.290;2023-05-07T04:47:26;60.13;;;36.15;;
64395;SDS011;50717;53.360;6.290;2023-05-07T04:49:52;61.55;;;37.47;;
64395;SDS011;50717;53.360;6.290;2023-05-07T04:52:18;68.18;;;36.70;;
64395;SDS011;50717;53.360;6.290;2023-05-07T04:54:43;61.13;;;37.25;;
64395;SDS011;50717;53.360;6.290;2023-05-07T04:57:09;60.53;;;37.55;;
64395;SDS011;50717;53.360;6.290;2023-05-07T04:59:35;64.88;;;38.33;;
64395;SDS011;50717;53.360;6.290;2023-05-07T05:02:01;62.78;;;36.10;;
64395;SDS011;50717;53.360;6.290;2023-05-07T05:04:26;64.72;;;39.13;;
64395;SDS011;50717;53.360;6.290;2023-05-07T05:06:52;65.28;;;39.63;;
64395;SDS011;50717;53.360;6.290;2023-05-07T05:09:18;68.45;;;39.83;;
64395;SDS011;50717;53.360;6.290;2023-05-07T05:11:46;63.50;;;37.30;;
64395;SDS011;50717;53.360;6.290;2023-05-07T05:14:12;62.15;;;36.72;;
64395;SDS011;50717;53.360;6.290;2023-05-07T05:16:38;62.20;;;37.00;;
64395;SDS011;50717;53.360;6.290;2023-05-07T05:19:03;67.80;;;37.05;;
64395;SDS011;50717;53.360;6.290;2023-05-07T05:21:29;58.25;;;35.45;;
64395;SDS011;50717;53.360;6.290;2023-05-07T05:23:55;61.05;;;36.25;;
64395;SDS011;50717;53.360;6.290;2023-05-07T05:26:21;56.38;;;34.88;;
64395;SDS011;50717;53.360;6.290;2023-05-07T05:28:47;54.80;;;33.70;;
64395;SDS011;50717;53.360;6.290;2023-05-07T05:31:13;55.60;;;35.08;;
64395;SDS011;50717;53.360;6.290;2023-05-07T05:36:05;58.70;;;34.15;;
64395;SDS011;50717;53.360;6.290;2023-05-07T05:38:31;56.45;;;35.67;;
64395;SDS011;50717;53.360;6.290;2023-05-07T05:40:57;54.42;;;34.08;;
64395;SDS011;50717;53.360;6.290;2023-05-07T05:43:23;61.65;;;36.97;;
64395;SDS011;50717;53.360;6.290;2023-05-07T05:45:48;64.10;;;39.72;;
64395;SDS011;50717;53.360;6.290;2023-05-07T05:48:14;70.72;;;42.63;;
64395;SDS011;50717;53.360;6.290;2023-05-07T05:50:41;80.07;;;44.38;;
64395;SDS011;50717;53.360;6.290;2023-05-07T05:53:07;82.88;;;47.22;;
64395;SDS011;50717;53.360;6.290;2023-05-07T05:55:33;84.18;;;50.17;;
64395;SDS011;50717;53.360;6.290;2023-05-07T05:57:59;75.72;;;48.20;;
64395;SDS011;50717;53.360;6.290;2023-05-07T06:00:25;84.40;;;48.45;;
64395;SDS011;50717;53.360;6.290;2023-05-07T06:05:17;78.03;;;45.63;;
64395;SDS011;50717;53.360;6.290;2023-05-07T06:07:43;69.55;;;42.20;;
64395;SDS011;50717;53.360;6.290;2023-05-07T06:10:09;73.30;;;44.30;;
64395;SDS011;50717;53.360;6.290;2023-05-07T06:12:34;79.63;;;46.63;;
64395;SDS011;50717;53.360;6.290;2023-05-07T06:15:00;88.28;;;51.25;;
64395;SDS011;50717;53.360;6.290;2023-05-07T06:17:26;91.88;;;52.35;;
64395;SDS011;50717;53.360;6.290;2023-05-07T06:19:52;98.03;;;55.17;;
64395;SDS011;50717;53.360;6.290;2023-05-07T06:22:18;103.30;;;56.10;;
64395;SDS011;50717;53.360;6.290;2023-05-07T06:24:44;102.57;;;56.13;;
64395;SDS011;50717;53.360;6.290;2023-05-07T06:27:10;105.72;;;58.05;;
64395;SDS011;50717;53.360;6.290;2023-05-07T06:29:35;98.38;;;57.00;;
64395;SDS011;50717;53.360;6.290;2023-05-07T06:32:11;102.10;;;55.15;;
64395;SDS011;50717;53.360;6.290;2023-05-07T06:37:04;92.50;;;51.80;;
64395;SDS011;50717;53.360;6.290;2023-05-07T06:39:30;82.55;;;50.97;;
64395;SDS011;50717;53.360;6.290;2023-05-07T06:41:56;89.40;;;52.25;;
64395;SDS011;50717;53.360;6.290;2023-05-07T06:44:21;91.35;;;52.10;;
64395;SDS011;50717;53.360;6.290;2023-05-07T06:46:47;88.93;;;51.42;;
64395;SDS011;50717;53.360;6.290;2023-05-07T06:49:13;83.50;;;50.10;;
64395;SDS011;50717;53.360;6.290;2023-05-07T06:51:39;74.78;;;47.60;;
64395;SDS011;50717;53.360;6.290;2023-05-07T06:54:04;79.13;;;47.40;;
64395;SDS011;50717;53.360;6.290;2023-05-07T06:56:30;80.68;;;48.50;;
64395;SDS011;50717;53.360;6.290;2023-05-07T06:58:57;73.50;;;47.50;;
64395;SDS011;50717;53.360;6.290;2023-05-07T07:01:23;82.10;;;48.35;;
64395;SDS011;50717;53.360;6.290;2023-05-07T07:03:48;82.22;;;50.42;;
64395;SDS011;50717;53.360;6.290;2023-05-07T07:06:16;78.72;;;48.17;;
64395;SDS011;50717;53.360;6.290;2023-05-07T07:08:41;78.43;;;48.40;;
64395;SDS011;50717;53.360;6.290;2023-05-07T07:11:07;67.43;;;42.30;;
64395;SDS011;50717;53.360;6.290;2023-05-07T07:13:34;65.10;;;42.47;;
64395;SDS011;50717;53.360;6.290;2023-05-07T07:15:59;60.60;;;39.40;;
64395;SDS011;50717;53.360;6.290;2023-05-07T07:18:25;51.88;;;36.00;;
64395;SDS011;50717;53.360;6.290;2023-05-07T07:20:51;56.70;;;37.75;;
64395;SDS011;50717;53.360;6.290;2023-05-07T07:23:17;57.13;;;34.95;;
64395;SDS011;50717;53.360;6.290;2023-05-07T07:25:43;51.58;;;34.80;;
64395;SDS011;50717;53.360;6.290;2023-05-07T07:28:08;51.72;;;33.30;;
64395;SDS011;50717;53.360;6.290;2023-05-07T07:30:35;49.38;;;34.78;;
64395;SDS011;50717;53.360;6.290;2023-05-07T07:33:02;52.92;;;34.20;;
64395;SDS011;50717;53.360;6.290;2023-05-07T07:35:28;51.63;;;34.45;;
64395;SDS011;50717;53.360;6.290;2023-05-07T07:37:55;53.50;;;34.97;;
64395;SDS011;50717;53.360;6.290;2023-05-07T07:40:20;54.05;;;35.50;;
64395;SDS011;50717;53.360;6.290;2023-05-07T07:42:46;50.65;;;34.65;;
64395;SDS011;50717;53.360;6.290;2023-05-07T07:45:12;53.05;;;35.00;;
64395;SDS011;50717;53.360;6.290;2023-05-07T07:47:38;51.20;;;34.65;;
64395;SDS011;50717;53.360;6.290;2023-05-07T07:50:05;48.03;;;32.40;;
64395;SDS011;50717;53.360;6.290;2023-05-07T07:52:32;49.53;;;31.48;;
64395;SDS011;50717;53.360;6.290;2023-05-07T07:54:57;47.33;;;31.35;;
64395;SDS011;50717;53.360;6.290;2023-05-07T07:57:23;46.63;;;30.40;;
64395;SDS011;50717;53.360;6.290;2023-05-07T07:59:49;43.80;;;29.02;;
64395;SDS011;50717;53.360;6.290;2023-05-07T08:02:15;44.80;;;29.67;;
64395;SDS011;50717;53.360;6.290;2023-05-07T08:04:41;46.08;;;31.25;;
64395;SDS011;50717;53.360;6.290;2023-05-07T08:07:08;43.05;;;29.05;;
64395;SDS011;50717;53.360;6.290;2023-05-07T08:09:35;45.30;;;29.90;;
64395;SDS011;50717;53.360;6.290;2023-05-07T08:12:01;42.85;;;30.42;;
64395;SDS011;50717;53.360;6.290;2023-05-07T08:14:27;43.63;;;29.70;;
64395;SDS011;50717;53.360;6.290;2023-05-07T08:16:53;44.47;;;28.65;;
64395;SDS011;50717;53.360;6.290;2023-05-07T08:19:19;43.15;;;29.90;;
64395;SDS011;50717;53.360;6.290;2023-05-07T08:21:46;40.58;;;29.55;;
64395;SDS011;50717;53.360;6.290;2023-05-07T08:24:15;46.17;;;28.67;;
64395;SDS011;50717;53.360;6.290;2023-05-07T08:26:41;42.17;;;28.60;;
64395;SDS011;50717;53.360;6.290;2023-05-07T08:31:33;42.72;;;28.30;;
64395;SDS011;50717;53.360;6.290;2023-05-07T08:33:59;43.17;;;27.58;;
64395;SDS011;50717;53.360;6.290;2023-05-07T08:36:25;41.15;;;28.85;;
64395;SDS011;50717;53.360;6.290;2023-05-07T08:38:51;38.00;;;27.92;;
64395;SDS011;50717;53.360;6.290;2023-05-07T08:41:17;41.40;;;27.40;;
64395;SDS011;50717;53.360;6.290;2023-05-07T08:43:48;41.85;;;27.80;;
64395;SDS011;50717;53.360;6.290;2023-05-07T08:46:21;40.28;;;27.58;;
64395;SDS011;50717;53.360;6.290;2023-05-07T08:48:47;37.95;;;27.02;;
64395;SDS011;50717;53.360;6.290;2023-05-07T08:51:15;39.35;;;28.02;;
64395;SDS011;50717;53.360;6.290;2023-05-07T08:53:43;38.83;;;27.67;;
64395;SDS011;50717;53.360;6.290;2023-05-07T08:56:10;39.47;;;27.98;;
64395;SDS011;50717;53.360;6.290;2023-05-07T09:01:07;39.85;;;27.13;;
64395;SDS011;50717;53.360;6.290;2023-05-07T09:03:34;39.00;;;26.05;;
64395;SDS011;50717;53.360;6.290;2023-05-07T09:06:01;38.72;;;27.00;;
64395;SDS011;50717;53.360;6.290;2023-05-07T09:08:27;39.90;;;27.75;;
64395;SDS011;50717;53.360;6.290;2023-05-07T09:10:53;37.45;;;26.58;;
64395;SDS011;50717;53.360;6.290;2023-05-07T09:13:19;38.28;;;25.67;;
64395;SDS011;50717;53.360;6.290;2023-05-07T09:15:45;36.67;;;26.23;;
64395;SDS011;50717;53.360;6.290;2023-05-07T09:18:11;37.80;;;26.48;;
64395;SDS011;50717;53.360;6.290;2023-05-07T09:20:38;37.10;;;25.45;;
64395;SDS011;50717;53.360;6.290;2023-05-07T09:23:04;36.08;;;25.73;;
64395;SDS011;50717;53.360;6.290;2023-05-07T09:25:32;36.22;;;25.92;;
64395;SDS011;50717;53.360;6.290;2023-05-07T09:28:02;35.83;;;26.02;;
64395;SDS011;50717;53.360;6.290;2023-05-07T09:30:30;36.28;;;24.92;;
64395;SDS011;50717;53.360;6.290;2023-05-07T09:32:57;35.83;;;24.73;;
64395;SDS011;50717;53.360;6.290;2023-05-07T09:35:24;32.30;;;24.85;;
64395;SDS011;50717;53.360;6.290;2023-05-07T09:37:55;32.42;;;23.85;;
64395;SDS011;50717;53.360;6.290;2023-05-07T09:40:25;33.40;;;24.70;;
64395;SDS011;50717;53.360;6.290;2023-05-07T09:42:52;31.35;;;23.83;;
64395;SDS011;50717;53.360;6.290;2023-05-07T09:47:53;32.25;;;23.55;;
64395;SDS011;50717;53.360;6.290;2023-05-07T09:50:27;30.35;;;23.60;;
64395;SDS011;50717;53.360;6.290;2023-05-07T09:52:55;33.35;;;24.05;;
64395;SDS011;50717;53.360;6.290;2023-05-07T09:55:22;33.83;;;24.35;;
64395;SDS011;50717;53.360;6.290;2023-05-07T09:57:52;31.58;;;24.45;;
64395;SDS011;50717;53.360;6.290;2023-05-07T10:00:19;29.27;;;23.27;;
64395;SDS011;50717;53.360;6.290;2023-05-07T10:02:47;31.85;;;23.75;;
64395;SDS011;50717;53.360;6.290;2023-05-07T10:05:15;34.03;;;23.65;;
64395;SDS011;50717;53.360;6.290;2023-05-07T10:07:41;29.52;;;22.88;;
64395;SDS011;50717;53.360;6.290;2023-05-07T10:10:08;29.15;;;22.15;;
64395;SDS011;50717;53.360;6.290;2023-05-07T10:15:07;31.00;;;23.75;;
64395;SDS011;50717;53.360;6.290;2023-05-07T10:17:38;31.50;;;23.25;;
64395;SDS011;50717;53.360;6.290;2023-05-07T10:20:04;30.42;;;22.33;;
64395;SDS011;50717;53.360;6.290;2023-05-07T10:22:32;29.45;;;22.02;;
64395;SDS011;50717;53.360;6.290;2023-05-07T10:25:14;30.05;;;23.15;;
64395;SDS011;50717;53.360;6.290;2023-05-07T10:27:40;30.35;;;22.23;;
64395;SDS011;50717;53.360;6.290;2023-05-07T10:33:01;29.02;;;22.30;;
64395;SDS011;50717;53.360;6.290;2023-05-07T10:35:31;26.58;;;22.13;;
64395;SDS011;50717;53.360;6.290;2023-05-07T10:38:02;27.30;;;21.55;;
64395;SDS011;50717;53.360;6.290;2023-05-07T10:40:30;29.95;;;22.48;;
64395;SDS011;50717;53.360;6.290;2023-05-07T10:43:00;26.58;;;21.40;;
64395;SDS011;50717;53.360;6.290;2023-05-07T10:45:30;29.38;;;21.83;;
64395;SDS011;50717;53.360;6.290;2023-05-07T10:50:43;26.63;;;21.30;;
64395;SDS011;50717;53.360;6.290;2023-05-07T10:55:43;28.63;;;22.60;;
64395;SDS011;50717;53.360;6.290;2023-05-07T11:00:50;27.40;;;21.40;;
64395;SDS011;50717;53.360;6.290;2023-05-07T11:03:16;26.25;;;20.63;;
64395;SDS011;50717;53.360;6.290;2023-05-07T11:08:08;29.23;;;20.83;;
64395;SDS011;50717;53.360;6.290;2023-05-07T11:18:47;25.10;;;19.83;;
64395;SDS011;50717;53.360;6.290;2023-05-07T11:21:34;24.48;;;20.00;;
64395;SDS011;50717;53.360;6.290;2023-05-07T11:24:04;23.55;;;20.00;;
64395;SDS011;50717;53.360;6.290;2023-05-07T11:26:50;23.38;;;19.85;;
64395;SDS011;50717;53.360;6.290;2023-05-07T11:29:17;23.27;;;19.52;;
64395;SDS011;50717;53.360;6.290;2023-05-07T11:31:47;25.65;;;20.60;;
64395;SDS011;50717;53.360;6.290;2023-05-07T11:34:14;24.67;;;19.30;;
64395;SDS011;50717;53.360;6.290;2023-05-07T11:36:45;26.38;;;19.02;;
64395;SDS011;50717;53.360;6.290;2023-05-07T11:41:54;23.35;;;19.35;;
64395;SDS011;50717;53.360;6.290;2023-05-07T11:44:20;22.95;;;19.23;;
64395;SDS011;50717;53.360;6.290;2023-05-07T11:46:45;22.15;;;18.45;;
64395;SDS011;50717;53.360;6.290;2023-05-07T11:49:11;24.33;;;19.35;;
64395;SDS011;50717;53.360;6.290;2023-05-07T11:51:37;22.17;;;18.25;;
64395;SDS011;50717;53.360;6.290;2023-05-07T11:54:04;21.77;;;18.05;;
64395;SDS011;50717;53.360;6.290;2023-05-07T11:56:34;20.33;;;17.52;;
64395;SDS011;50717;53.360;6.290;2023-05-07T11:59:00;20.52;;;17.08;;
64395;SDS011;50717;53.360;6.290;2023-05-07T12:01:26;24.33;;;19.10;;
64395;SDS011;50717;53.360;6.290;2023-05-07T12:03:52;22.65;;;17.85;;
64395;SDS011;50717;53.360;6.290;2023-05-07T12:06:18;21.77;;;18.88;;
64395;SDS011;50717;53.360;6.290;2023-05-07T12:08:44;20.25;;;17.70;;
64395;SDS011;50717;53.360;6.290;2023-05-07T12:11:15;21.27;;;16.98;;
64395;SDS011;50717;53.360;6.290;2023-05-07T12:13:43;22.67;;;18.48;;
64395;SDS011;50717;53.360;6.290;2023-05-07T12:16:09;21.50;;;18.15;;
64395;SDS011;50717;53.360;6.290;2023-05-07T12:18:35;22.23;;;17.95;;
64395;SDS011;50717;53.360;6.290;2023-05-07T12:21:02;22.02;;;19.02;;
64395;SDS011;50717;53.360;6.290;2023-05-07T12:23:30;20.67;;;16.98;;
64395;SDS011;50717;53.360;6.290;2023-05-07T12:25:56;22.98;;;17.02;;
64395;SDS011;50717;53.360;6.290;2023-05-07T12:28:21;20.23;;;17.80;;
64395;SDS011;50717;53.360;6.290;2023-05-07T12:30:48;18.20;;;16.17;;
64395;SDS011;50717;53.360;6.290;2023-05-07T12:33:18;18.58;;;16.13;;
64395;SDS011;50717;53.360;6.290;2023-05-07T12:35:48;17.80;;;15.82;;
64395;SDS011;50717;53.360;6.290;2023-05-07T12:38:14;19.67;;;16.38;;
64395;SDS011;50717;53.360;6.290;2023-05-07T12:40:42;18.35;;;15.43;;
64395;SDS011;50717;53.360;6.290;2023-05-07T12:43:16;18.17;;;16.25;;
64395;SDS011;50717;53.360;6.290;2023-05-07T12:45:48;17.90;;;15.82;;
64395;SDS011;50717;53.360;6.290;2023-05-07T12:48:15;18.30;;;15.88;;
64395;SDS011;50717;53.360;6.290;2023-05-07T12:50:41;18.02;;;15.88;;
64395;SDS011;50717;53.360;6.290;2023-05-07T12:53:08;18.70;;;16.42;;
64395;SDS011;50717;53.360;6.290;2023-05-07T12:55:48;17.85;;;15.55;;
64395;SDS011;50717;53.360;6.290;2023-05-07T12:58:16;17.92;;;16.02;;
64395;SDS011;50717;53.360;6.290;2023-05-07T13:00:55;16.73;;;15.00;;
64395;SDS011;50717;53.360;6.290;2023-05-07T13:03:28;16.55;;;14.25;;
64395;SDS011;50717;53.360;6.290;2023-05-07T13:05:59;15.88;;;14.27;;
64395;SDS011;50717;53.360;6.290;2023-05-07T13:08:30;16.90;;;15.18;;
64395;SDS011;50717;53.360;6.290;2023-05-07T13:10:57;17.05;;;14.98;;
64395;SDS011;50717;53.360;6.290;2023-05-07T13:13:33;16.75;;;14.88;;
64395;SDS011;50717;53.360;6.290;2023-05-07T13:16:00;17.23;;;15.43;;
64395;SDS011;50717;53.360;6.290;2023-05-07T13:18:26;17.05;;;15.25;;
64395;SDS011;50717;53.360;6.290;2023-05-07T13:20:54;18.52;;;15.90;;
64395;SDS011;50717;53.360;6.290;2023-05-07T13:23:20;17.08;;;14.88;;
64395;SDS011;50717;53.360;6.290;2023-05-07T13:25:46;16.08;;;14.48;;
64395;SDS011;50717;53.360;6.290;2023-05-07T13:28:13;16.70;;;14.90;;
64395;SDS011;50717;53.360;6.290;2023-05-07T13:30:39;16.90;;;15.15;;
64395;SDS011;50717;53.360;6.290;2023-05-07T13:33:05;15.52;;;13.95;;
64395;SDS011;50717;53.360;6.290;2023-05-07T13:35:32;19.35;;;15.57;;
64395;SDS011;50717;53.360;6.290;2023-05-07T13:37:57;17.55;;;14.02;;
64395;SDS011;50717;53.360;6.290;2023-05-07T13:40:23;18.33;;;16.42;;
64395;SDS011;50717;53.360;6.290;2023-05-07T13:42:49;18.52;;;16.55;;
64395;SDS011;50717;53.360;6.290;2023-05-07T13:45:16;17.35;;;15.40;;
64395;SDS011;50717;53.360;6.290;2023-05-07T13:47:43;17.05;;;15.25;;
64395;SDS011;50717;53.360;6.290;2023-05-07T13:50:09;16.67;;;14.98;;
64395;SDS011;50717;53.360;6.290;2023-05-07T13:52:36;16.05;;;14.55;;
64395;SDS011;50717;53.360;6.290;2023-05-07T13:55:03;17.35;;;15.60;;
64395;SDS011;50717;53.360;6.290;2023-05-07T13:57:29;17.20;;;15.27;;
64395;SDS011;50717;53.360;6.290;2023-05-07T13:59:55;16.70;;;15.02;;
64395;SDS011;50717;53.360;6.290;2023-05-07T14:02:20;17.58;;;15.85;;
64395;SDS011;50717;53.360;6.290;2023-05-07T14:04:46;17.02;;;15.10;;
64395;SDS011;50717;53.360;6.290;2023-05-07T14:07:12;17.05;;;15.25;;
64395;SDS011;50717;53.360;6.290;2023-05-07T14:09:37;15.65;;;14.05;;
64395;SDS011;50717;53.360;6.290;2023-05-07T14:12:03;17.05;;;15.43;;
64395;SDS011;50717;53.360;6.290;2023-05-07T14:14:29;16.20;;;14.65;;
64395;SDS011;50717;53.360;6.290;2023-05-07T14:16:55;289.33;;;21.92;;
64395;SDS011;50717;53.360;6.290;2023-05-07T14:19:21;300.63;;;26.40;;
64395;SDS011;50717;53.360;6.290;2023-05-07T14:21:47;195.00;;;21.20;;
64395;SDS011;50717;53.360;6.290;2023-05-07T14:24:13;143.60;;;15.77;;
64395;SDS011;50717;53.360;6.290;2023-05-07T14:26:39;15.75;;;14.13;;
64395;SDS011;50717;53.360;6.290;2023-05-07T14:29:05;15.40;;;13.90;;
64395;SDS011;50717;53.360;6.290;2023-05-07T14:31:31;16.38;;;13.65;;
64395;SDS011;50717;53.360;6.290;2023-05-07T14:33:57;13.77;;;12.23;;
64395;SDS011;50717;53.360;6.290;2023-05-07T14:36:24;15.13;;;13.63;;
64395;SDS011;50717;53.360;6.290;2023-05-07T14:38:51;14.50;;;12.75;;
64395;SDS011;50717;53.360;6.290;2023-05-07T14:41:21;68.28;;;8.77;;
64395;SDS011;50717;53.360;6.290;2023-05-07T14:43:47;14.13;;;12.02;;
64395;SDS011;50717;53.360;6.290;2023-05-07T14:46:18;13.30;;;11.80;;
64395;SDS011;50717;53.360;6.290;2023-05-07T14:48:44;46.80;;;10.30;;
64395;SDS011;50717;53.360;6.290;2023-05-07T14:51:13;56.10;;;12.75;;
64395;SDS011;50717;53.360;6.290;2023-05-07T14:53:42;43.30;;;10.30;;
64395;SDS011;50717;53.360;6.290;2023-05-07T14:56:08;165.13;;;14.95;;
64395;SDS011;50717;53.360;6.290;2023-05-07T14:58:34;109.28;;;12.82;;
64395;SDS011;50717;53.360;6.290;2023-05-07T15:01:00;13.55;;;12.25;;
64395;SDS011;50717;53.360;6.290;2023-05-07T15:03:26;12.43;;;11.23;;
64395;SDS011;50717;53.360;6.290;2023-05-07T15:05:52;12.98;;;10.32;;
64395;SDS011;50717;53.360;6.290;2023-05-07T15:08:18;13.43;;;10.70;;
64395;SDS011;50717;53.360;6.290;2023-05-07T15:10:44;13.50;;;11.32;;
64395;SDS011;50717;53.360;6.290;2023-05-07T15:13:10;11.88;;;10.77;;
64395;SDS011;50717;53.360;6.290;2023-05-07T15:15:37;15.90;;;8.43;;
64395;SDS011;50717;53.360;6.290;2023-05-07T15:18:03;11.77;;;8.93;;
64395;SDS011;50717;53.360;6.290;2023-05-07T15:20:29;11.95;;;10.75;;
64395;SDS011;50717;53.360;6.290;2023-05-07T15:22:55;11.60;;;10.40;;
64395;SDS011;50717;53.360;6.290;2023-05-07T15:25:21;12.30;;;11.18;;
64395;SDS011;50717;53.360;6.290;2023-05-07T15:27:47;12.20;;;10.75;;